Time;durP1;ratioP1;P1;durP2;ratioP2;P2;SDS_P1;SDS_P2;PMS_P1;PMS_P2;Temp;Humidity;BMP_temperature;BMP_pressure;BME280_temperature;BME280_humidity;BME280_pressure;Samples;Min_cycle;Max_cycle;Signal;HPM_P1;HPM_P2
2023/12/20 00:02:07;;;;;;;13.27;1.52;;;5.60;99.90;;;;;;4955623;29;20039;-85
2023/12/20 00:04:33;;;;;;;8.05;2.08;;;5.90;99.90;;;;;;4955686;29;20075;-86
2023/12/20 00:07:00;;;;;;;11.27;1.60;;;5.80;99.90;;;;;;4955153;29;20056;-85
2023/12/20 00:09:27;;;;;;;17.30;1.77;;;6.20;99.90;;;;;;4955467;29;20075;-85
2023/12/20 00:11:53;;;;;;;18.75;1.70;;;5.50;99.90;;;;;;4955490;29;20036;-86
2023/12/20 00:14:20;;;;;;;9.85;1.50;;;5.80;99.90;;;;;;4955606;29;20094;-86
2023/12/20 00:16:47;;;;;;;18.13;1.70;;;5.50;99.90;;;;;;4955339;29;20051;-85
2023/12/20 00:19:13;;;;;;;8.65;1.70;;;5.60;99.90;;;;;;4967983;29;20039;-85
2023/12/20 00:21:40;;;;;;;11.68;1.83;;;5.90;99.90;;;;;;4955329;29;20042;-85
2023/12/20 00:24:07;;;;;;;14.32;2.03;;;6.10;99.90;;;;;;4943783;29;20488;-85
2023/12/20 00:26:34;;;;;;;12.85;1.58;;;5.40;99.90;;;;;;4982600;28;20036;-85
2023/12/20 00:29:00;;;;;;;9.63;2.50;;;5.60;99.90;;;;;;4974758;29;20131;-85
2023/12/20 00:31:27;;;;;;;18.40;1.80;;;5.30;99.90;;;;;;4970679;29;20130;-86
2023/12/20 00:33:54;;;;;;;11.05;2.03;;;5.40;99.90;;;;;;4942626;29;20044;-86
2023/12/20 00:36:21;;;;;;;14.40;1.70;;;6.00;99.90;;;;;;4964883;29;20047;-86
2023/12/20 00:38:48;;;;;;;10.43;1.95;;;5.40;99.90;;;;;;4976437;29;20042;-85
2023/12/20 00:41:14;;;;;;;19.05;2.33;;;5.50;99.90;;;;;;4970568;29;20094;-85
2023/12/20 00:43:41;;;;;;;7.80;1.80;;;5.40;99.90;;;;;;4970684;29;20507;-85
2023/12/20 00:46:08;;;;;;;13.77;1.77;;;5.30;99.90;;;;;;4955109;29;20043;-85
2023/12/20 00:48:34;;;;;;;12.52;1.88;;;5.30;99.90;;;;;;4963092;29;20134;-85
2023/12/20 00:51:01;;;;;;;9.88;1.42;;;5.30;99.90;;;;;;4954750;29;20043;-85
2023/12/20 00:53:27;;;;;;;13.25;2.00;;;5.30;99.90;;;;;;4956441;29;20416;-85
2023/12/20 00:55:54;;;;;;;12.75;1.83;;;5.30;99.90;;;;;;4954041;29;20047;-85
2023/12/20 00:58:21;;;;;;;7.20;1.25;;;5.30;99.90;;;;;;4972293;29;20501;-85
2023/12/20 01:00:47;;;;;;;13.88;2.28;;;5.30;99.90;;;;;;4973101;29;20046;-85
2023/12/20 01:03:15;;;;;;;12.98;1.70;;;5.40;99.90;;;;;;4953642;29;20059;-85
2023/12/20 01:05:41;;;;;;;13.88;1.90;;;5.30;99.90;;;;;;4954312;29;20074;-86
2023/12/20 01:08:08;;;;;;;9.20;2.00;;;5.40;99.90;;;;;;4954108;29;20083;-86
2023/12/20 01:10:35;;;;;;;15.30;2.40;;;6.20;99.90;;;;;;4970418;29;20126;-85
2023/12/20 01:13:01;;;;;;;15.15;1.80;;;5.40;99.90;;;;;;4969264;29;20386;-85
2023/12/20 01:15:28;;;;;;;9.35;1.83;;;5.40;99.90;;;;;;4952907;29;20135;-85
2023/12/20 01:17:56;;;;;;;21.20;2.20;;;5.40;99.90;;;;;;4957610;29;20131;-85
2023/12/20 01:20:23;;;;;;;8.40;2.03;;;5.50;99.90;;;;;;4953751;29;20035;-85
2023/12/20 01:22:49;;;;;;;7.40;1.58;;;5.50;99.90;;;;;;4969696;29;20095;-86
2023/12/20 01:25:16;;;;;;;12.38;2.13;;;5.50;99.90;;;;;;4969996;29;20054;-85
2023/12/20 01:27:43;;;;;;;12.07;2.20;;;5.50;99.90;;;;;;4953997;29;20047;-85
2023/12/20 01:30:10;;;;;;;17.23;2.20;;;5.90;99.90;;;;;;4945708;29;20123;-86
2023/12/20 01:32:36;;;;;;;17.48;2.13;;;5.50;99.90;;;;;;4950116;29;20043;-85
2023/12/20 01:35:03;;;;;;;16.42;2.10;;;6.00;99.90;;;;;;4953689;29;20114;-85
2023/12/20 01:37:30;;;;;;;13.13;2.65;;;5.60;99.90;;;;;;4966671;29;20040;-85
2023/12/20 01:39:56;;;;;;;14.57;2.30;;;5.60;99.90;;;;;;4935041;29;20044;-86
2023/12/20 01:42:23;;;;;;;13.68;1.65;;;6.40;99.90;;;;;;4953862;29;20047;-85
2023/12/20 01:44:50;;;;;;;14.13;2.28;;;5.60;99.90;;;;;;4953702;29;20040;-85
2023/12/20 01:47:17;;;;;;;7.53;1.83;;;5.60;99.90;;;;;;4953497;29;20062;-85
2023/12/20 01:49:44;;;;;;;10.27;1.70;;;5.50;99.90;;;;;;4939700;29;20091;-86
2023/12/20 01:52:10;;;;;;;17.77;2.25;;;5.60;99.90;;;;;;4951090;29;20035;-86
2023/12/20 01:54:38;;;;;;;18.05;2.60;;;5.60;99.90;;;;;;4953457;29;20047;-86
2023/12/20 01:57:06;;;;;;;10.23;2.33;;;5.70;99.90;;;;;;4957731;29;20436;-85
2023/12/20 01:59:34;;;;;;;16.60;1.88;;;5.60;99.90;;;;;;4949822;29;20453;-85
2023/12/20 02:02:02;;;;;;;10.32;1.90;;;5.60;99.90;;;;;;4952169;29;20788;-86
2023/12/20 02:04:29;;;;;;;16.23;2.45;;;5.70;99.90;;;;;;4953129;29;20039;-85
2023/12/20 02:06:57;;;;;;;19.55;2.25;;;5.70;99.90;;;;;;4969263;29;20056;-85
2023/12/20 02:09:24;;;;;;;14.25;2.50;;;5.70;99.90;;;;;;4940710;29;20420;-85
2023/12/20 02:11:50;;;;;;;17.98;2.20;;;6.20;99.90;;;;;;4966741;29;20046;-85
2023/12/20 02:14:17;;;;;;;11.90;2.03;;;5.80;99.90;;;;;;4940893;29;20716;-85
2023/12/20 02:16:44;;;;;;;18.35;1.95;;;5.80;99.90;;;;;;4938518;29;20440;-85
2023/12/20 02:19:15;;;;;;;15.90;2.10;;;5.80;99.90;;;;;;4942380;29;20429;-85
2023/12/20 02:21:41;;;;;;;19.48;2.40;;;5.90;99.90;;;;;;4939612;29;20040;-85
2023/12/20 02:24:08;;;;;;;11.45;1.70;;;5.80;99.90;;;;;;4969280;29;20062;-85
2023/12/20 02:26:35;;;;;;;13.98;2.65;;;6.10;99.90;;;;;;4934331;29;20055;-85
2023/12/20 02:29:02;;;;;;;16.00;1.88;;;5.80;99.90;;;;;;4946370;29;20048;-86
2023/12/20 02:31:28;;;;;;;12.48;1.73;;;6.20;99.90;;;;;;4952898;29;20036;-85
2023/12/20 02:33:55;;;;;;;18.95;2.15;;;5.80;99.90;;;;;;4953019;29;20079;-85
2023/12/20 02:36:21;;;;;;;11.95;1.77;;;5.80;99.90;;;;;;4946436;29;20043;-86
2023/12/20 02:38:50;;;;;;;13.80;1.80;;;5.80;99.90;;;;;;4946872;29;20408;-86
2023/12/20 02:41:18;;;;;;;12.07;1.88;;;5.80;99.90;;;;;;4953043;29;20501;-85
2023/12/20 02:43:44;;;;;;;13.40;1.85;;;5.70;99.90;;;;;;4951136;29;20032;-85
2023/12/20 02:46:13;;;;;;;15.27;2.08;;;5.70;99.90;;;;;;4968233;29;20036;-85
2023/12/20 02:48:40;;;;;;;10.20;2.13;;;5.70;99.90;;;;;;4950282;29;20043;-85
2023/12/20 02:51:06;;;;;;;16.20;2.55;;;6.00;99.90;;;;;;4942128;29;20058;-85
2023/12/20 02:53:33;;;;;;;12.10;1.45;;;6.10;99.90;;;;;;4952601;29;20449;-85
2023/12/20 02:55:59;;;;;;;7.38;1.50;;;5.70;99.90;;;;;;4952901;29;20039;-85
2023/12/20 02:58:26;;;;;;;14.35;1.63;;;5.90;99.90;;;;;;4949334;29;20048;-85
2023/12/20 03:00:53;;;;;;;6.82;1.42;;;5.60;99.90;;;;;;4939408;29;20919;-85
2023/12/20 03:03:19;;;;;;;10.15;1.90;;;5.60;99.90;;;;;;4949395;29;20079;-85
2023/12/20 03:05:46;;;;;;;7.22;1.55;;;6.00;99.90;;;;;;4952466;29;20062;-85
2023/12/20 03:08:13;;;;;;;8.15;1.90;;;5.60;99.90;;;;;;4956092;29;20052;-86
2023/12/20 03:10:39;;;;;;;18.33;2.25;;;6.40;99.90;;;;;;4952465;29;20051;-86
2023/12/20 03:13:06;;;;;;;13.35;2.22;;;6.60;99.90;;;;;;4949312;29;20191;-85
2023/12/20 03:15:33;;;;;;;9.25;1.98;;;5.70;99.90;;;;;;4952662;29;20572;-86
2023/12/20 03:17:59;;;;;;;12.73;2.10;;;5.70;99.90;;;;;;4951088;29;20075;-85
2023/12/20 03:20:26;;;;;;;15.60;2.35;;;5.70;99.90;;;;;;4960373;29;20044;-85
2023/12/20 03:22:52;;;;;;;9.80;2.22;;;6.40;99.90;;;;;;4967837;29;20035;-85
2023/12/20 03:25:19;;;;;;;21.08;2.63;;;6.40;99.90;;;;;;4952634;29;20475;-85
2023/12/20 03:27:45;;;;;;;14.55;2.78;;;5.80;99.90;;;;;;4952339;29;20040;-85
2023/12/20 03:30:12;;;;;;;19.63;2.58;;;5.70;99.90;;;;;;4952961;29;20035;-85
2023/12/20 03:32:39;;;;;;;14.70;2.10;;;5.60;99.90;;;;;;4939839;29;20052;-85
2023/12/20 03:35:06;;;;;;;15.70;2.40;;;5.60;99.90;;;;;;4952585;29;20043;-85
2023/12/20 03:37:33;;;;;;;12.13;3.05;;;5.60;99.90;;;;;;4951474;29;20134;-85
2023/12/20 03:39:59;;;;;;;19.77;3.42;;;5.50;99.90;;;;;;4936991;29;20044;-85
2023/12/20 03:42:26;;;;;;;18.65;2.83;;;5.60;99.90;;;;;;4953110;29;20040;-85
2023/12/20 03:44:53;;;;;;;15.93;3.10;;;5.50;99.90;;;;;;4946255;29;20090;-85
2023/12/20 03:47:19;;;;;;;14.73;2.90;;;5.70;99.90;;;;;;4949584;29;20044;-85
2023/12/20 03:49:46;;;;;;;20.17;2.90;;;5.60;99.90;;;;;;4952366;29;20126;-85
2023/12/20 03:52:13;;;;;;;24.33;3.30;;;5.70;99.90;;;;;;4968765;29;20086;-85
2023/12/20 03:54:42;;;;;;;13.93;2.80;;;5.70;99.90;;;;;;4955821;29;20044;-85
2023/12/20 03:57:08;;;;;;;18.90;3.38;;;5.70;99.90;;;;;;4966998;29;20044;-85
2023/12/20 03:59:36;;;;;;;26.70;3.10;;;5.80;99.90;;;;;;4977640;29;20050;-86
2023/12/20 04:02:04;;;;;;;23.35;2.90;;;5.80;99.90;;;;;;4950015;29;20043;-85
2023/12/20 04:04:30;;;;;;;23.40;3.00;;;5.80;99.90;;;;;;4936396;29;20119;-86
2023/12/20 04:06:57;;;;;;;13.00;2.53;;;5.90;99.90;;;;;;4948901;29;20143;-85
2023/12/20 04:09:24;;;;;;;25.23;2.95;;;5.90;99.90;;;;;;4946389;29;20084;-85
2023/12/20 04:11:50;;;;;;;27.75;3.10;;;6.30;99.90;;;;;;4955417;29;20066;-85
2023/12/20 04:14:17;;;;;;;24.17;3.03;;;5.80;99.90;;;;;;4941984;29;20040;-85
2023/12/20 04:16:44;;;;;;;18.35;2.92;;;5.80;99.90;;;;;;4968473;29;20497;-85
2023/12/20 04:19:10;;;;;;;19.75;3.10;;;5.80;99.90;;;;;;4955131;29;20039;-85
2023/12/20 04:21:37;;;;;;;26.83;2.78;;;6.40;99.90;;;;;;4971057;29;20130;-85
2023/12/20 04:24:04;;;;;;;24.48;3.33;;;5.80;99.90;;;;;;4955287;29;20044;-85
2023/12/20 04:26:30;;;;;;;23.73;3.33;;;5.80;99.90;;;;;;4959059;29;20108;-84
2023/12/20 04:28:57;;;;;;;22.48;3.10;;;5.80;99.90;;;;;;4954631;29;20063;-85
2023/12/20 04:31:23;;;;;;;14.93;2.65;;;5.80;99.90;;;;;;4958248;29;20130;-85
2023/12/20 04:33:50;;;;;;;22.70;3.08;;;5.80;99.90;;;;;;4978175;29;20047;-85
2023/12/20 04:36:17;;;;;;;18.50;3.00;;;5.90;99.90;;;;;;4939161;29;20138;-85
2023/12/20 04:38:43;;;;;;;26.52;4.13;;;5.90;99.90;;;;;;4948539;29;20453;-85
2023/12/20 04:41:10;;;;;;;21.15;3.03;;;5.80;99.90;;;;;;4970726;29;20466;-85
2023/12/20 04:43:37;;;;;;;22.55;3.38;;;5.80;99.90;;;;;;4954844;29;20131;-85
2023/12/20 04:46:04;;;;;;;29.92;3.80;;;6.70;99.90;;;;;;4954754;29;20479;-85
2023/12/20 04:48:30;;;;;;;27.83;3.60;;;5.90;99.90;;;;;;4940838;29;20119;-85
2023/12/20 04:50:57;;;;;;;18.08;3.33;;;6.00;99.90;;;;;;4958366;29;20094;-85
2023/12/20 04:53:23;;;;;;;26.02;3.22;;;5.80;99.90;;;;;;4953992;29;20032;-85
2023/12/20 04:55:50;;;;;;;25.17;3.30;;;5.80;99.90;;;;;;4951479;29;20478;-85
2023/12/20 04:58:17;;;;;;;27.60;3.28;;;6.40;99.90;;;;;;4965226;29;20050;-84
2023/12/20 05:00:43;;;;;;;20.95;3.35;;;5.90;99.90;;;;;;4954573;29;20067;-85
2023/12/20 05:03:10;;;;;;;26.50;3.70;;;6.00;99.90;;;;;;4952915;29;20067;-85
2023/12/20 05:05:38;;;;;;;21.83;3.00;;;6.00;99.90;;;;;;4973936;29;20048;-85
2023/12/20 05:08:05;;;;;;;22.73;3.33;;;6.80;99.90;;;;;;4947901;29;20059;-85
2023/12/20 05:10:31;;;;;;;21.75;3.35;;;6.10;99.90;;;;;;4954375;29;20123;-85
2023/12/20 05:12:58;;;;;;;21.77;3.45;;;6.10;99.90;;;;;;4942023;29;20504;-85
2023/12/20 05:15:24;;;;;;;28.88;4.43;;;6.20;99.90;;;;;;4954357;29;20040;-85
2023/12/20 05:17:51;;;;;;;19.58;2.97;;;6.30;99.90;;;;;;4969955;29;20070;-85
2023/12/20 05:20:18;;;;;;;25.85;4.10;;;6.40;99.90;;;;;;4947441;29;20501;-85
2023/12/20 05:22:45;;;;;;;26.23;3.38;;;6.30;99.90;;;;;;4960379;29;20047;-85
2023/12/20 05:25:12;;;;;;;21.10;3.10;;;6.30;99.90;;;;;;4935573;29;20031;-85
2023/12/20 05:27:38;;;;;;;21.98;3.38;;;6.30;99.90;;;;;;4963297;29;20170;-84
2023/12/20 05:30:05;;;;;;;28.67;3.50;;;6.30;99.90;;;;;;4943847;29;20048;-85
2023/12/20 05:32:32;;;;;;;18.42;3.53;;;6.30;99.90;;;;;;4953959;29;20043;-85
2023/12/20 05:34:59;;;;;;;25.90;4.13;;;6.30;99.90;;;;;;4953643;29;20485;-85
2023/12/20 05:37:25;;;;;;;24.98;3.40;;;6.40;99.90;;;;;;4951326;29;20051;-85
2023/12/20 05:39:52;;;;;;;27.20;3.78;;;6.40;99.90;;;;;;4950616;29;20051;-85
2023/12/20 05:42:19;;;;;;;29.00;4.55;;;6.40;99.90;;;;;;4947190;29;20043;-85
2023/12/20 05:44:45;;;;;;;25.20;4.03;;;6.90;99.90;;;;;;4953926;29;20039;-85
2023/12/20 05:47:12;;;;;;;27.35;4.15;;;6.40;99.90;;;;;;4953632;29;20040;-85
2023/12/20 05:49:39;;;;;;;22.40;3.50;;;6.40;99.90;;;;;;4953547;29;20416;-85
2023/12/20 05:52:05;;;;;;;27.77;3.35;;;6.40;99.90;;;;;;4953882;29;20054;-85
2023/12/20 05:54:32;;;;;;;18.17;3.03;;;6.40;99.90;;;;;;4953609;29;20043;-85
2023/12/20 05:56:59;;;;;;;23.50;2.95;;;6.40;99.90;;;;;;4969316;29;20090;-85
2023/12/20 05:59:25;;;;;;;22.27;3.63;;;7.00;99.90;;;;;;4945077;29;20044;-85
2023/12/20 06:01:52;;;;;;;18.30;4.20;;;6.90;99.90;;;;;;4936958;29;20051;-86
2023/12/20 06:04:18;;;;;;;21.35;2.78;;;6.50;99.90;;;;;;4957900;29;20071;-86
2023/12/20 06:06:45;;;;;;;21.40;2.97;;;6.50;99.90;;;;;;4951101;29;20052;-84
2023/12/20 06:09:12;;;;;;;19.73;3.35;;;6.50;99.90;;;;;;4934462;29;20051;-85
2023/12/20 06:11:38;;;;;;;26.27;3.65;;;6.50;99.90;;;;;;4964489;29;20079;-85
2023/12/20 06:14:05;;;;;;;18.15;3.08;;;7.50;99.90;;;;;;4949569;29;20127;-85
2023/12/20 06:16:32;;;;;;;25.73;3.03;;;6.90;99.90;;;;;;4949151;29;20126;-85
2023/12/20 06:18:58;;;;;;;20.58;3.47;;;6.60;99.90;;;;;;4943085;29;20044;-85
2023/12/20 06:21:25;;;;;;;19.92;3.08;;;7.10;99.90;;;;;;4956212;29;20067;-85
2023/12/20 06:23:51;;;;;;;21.48;3.20;;;7.20;99.90;;;;;;4957591;29;20040;-85
2023/12/20 06:26:18;;;;;;;19.00;4.25;;;6.70;99.90;;;;;;4953077;29;20533;-85
2023/12/20 06:28:45;;;;;;;26.38;3.17;;;6.70;99.90;;;;;;4953381;29;20090;-85
2023/12/20 06:31:12;;;;;;;22.65;3.50;;;7.30;99.90;;;;;;4952771;29;20039;-85
2023/12/20 06:33:41;;;;;;;30.33;3.42;;;6.90;99.90;;;;;;4953009;29;20488;-85
2023/12/20 06:36:07;;;;;;;14.82;2.80;;;6.70;99.90;;;;;;4953041;29;20051;-85
2023/12/20 06:38:34;;;;;;;19.20;3.75;;;6.70;99.90;;;;;;4968579;29;20047;-85
2023/12/20 06:41:01;;;;;;;19.02;2.92;;;6.80;99.90;;;;;;4969304;29;20083;-85
2023/12/20 06:43:28;;;;;;;19.33;3.30;;;6.70;99.90;;;;;;4943468;29;20122;-85
2023/12/20 06:45:55;;;;;;;26.73;3.10;;;7.00;99.90;;;;;;4937361;29;20145;-85
2023/12/20 06:48:21;;;;;;;15.95;2.95;;;6.60;99.90;;;;;;4940082;29;20052;-84
2023/12/20 06:50:48;;;;;;;20.58;4.50;;;6.70;99.90;;;;;;4964106;29;20489;-84
2023/12/20 06:53:14;;;;;;;22.20;2.90;;;7.40;99.90;;;;;;4949036;29;20047;-84
2023/12/20 06:55:41;;;;;;;28.27;3.42;;;6.70;99.90;;;;;;4945078;29;20051;-84
2023/12/20 06:58:08;;;;;;;22.70;2.85;;;6.70;99.90;;;;;;4946486;29;20044;-85
2023/12/20 07:00:35;;;;;;;29.50;3.80;;;7.20;99.90;;;;;;4944723;29;20119;-84
2023/12/20 07:03:02;;;;;;;17.75;3.53;;;6.70;99.90;;;;;;4958355;29;20123;-85
2023/12/20 07:05:28;;;;;;;24.33;3.35;;;6.70;99.90;;;;;;4946504;29;20437;-85
2023/12/20 07:07:55;;;;;;;30.45;3.65;;;6.70;99.90;;;;;;4929330;29;20056;-84
2023/12/20 07:10:22;;;;;;;20.67;3.55;;;6.70;99.90;;;;;;4948396;29;20048;-85
2023/12/20 07:12:49;;;;;;;21.55;3.88;;;6.70;99.90;;;;;;4943078;29;20061;-85
2023/12/20 07:15:15;;;;;;;18.95;3.58;;;6.80;99.90;;;;;;4949102;29;20044;-85
2023/12/20 07:17:43;;;;;;;21.58;3.38;;;7.50;99.90;;;;;;4959138;29;20123;-85
2023/12/20 07:20:10;;;;;;;27.40;3.30;;;6.90;99.90;;;;;;4944091;29;20044;-85
2023/12/20 07:22:37;;;;;;;26.55;4.53;;;6.80;99.90;;;;;;4962960;29;20047;-85
2023/12/20 07:25:04;;;;;;;17.30;3.05;;;7.00;99.90;;;;;;4949607;29;20040;-84
2023/12/20 07:27:31;;;;;;;17.38;2.80;;;6.80;99.90;;;;;;4947948;29;20505;-85
2023/12/20 07:29:57;;;;;;;18.70;3.25;;;7.00;99.90;;;;;;4962744;29;20127;-85
2023/12/20 07:32:24;;;;;;;27.13;3.38;;;6.80;99.90;;;;;;4955262;29;20039;-85
2023/12/20 07:34:51;;;;;;;19.70;3.58;;;7.30;99.90;;;;;;4947716;29;20106;-85
2023/12/20 07:37:17;;;;;;;20.30;3.55;;;7.00;99.90;;;;;;4957949;29;20051;-85
2023/12/20 07:39:44;;;;;;;14.93;2.80;;;6.80;99.90;;;;;;4953799;29;20389;-85
2023/12/20 07:42:11;;;;;;;19.92;2.67;;;6.90;99.90;;;;;;4955710;29;20134;-85
2023/12/20 07:44:38;;;;;;;20.55;3.03;;;6.90;99.90;;;;;;4955335;29;20043;-85
2023/12/20 07:47:04;;;;;;;21.35;3.40;;;6.90;99.90;;;;;;4946308;29;20172;-85
2023/12/20 07:49:31;;;;;;;20.88;3.17;;;6.90;99.90;;;;;;4953067;29;20050;-84
2023/12/20 07:51:58;;;;;;;18.17;3.25;;;7.20;99.90;;;;;;4953619;29;20043;-85
2023/12/20 07:54:25;;;;;;;17.00;3.03;;;6.90;99.90;;;;;;4952926;29;20044;-85
2023/12/20 07:56:52;;;;;;;19.65;3.35;;;7.00;99.90;;;;;;4970323;29;20040;-85
2023/12/20 07:59:18;;;;;;;16.65;3.22;;;7.00;99.90;;;;;;4955328;29;20043;-85
2023/12/20 08:01:45;;;;;;;23.55;2.40;;;7.00;99.90;;;;;;4970605;29;20040;-85
2023/12/20 08:04:11;;;;;;;24.58;3.05;;;7.00;99.90;;;;;;4942661;29;20035;-85
2023/12/20 08:06:38;;;;;;;27.40;3.65;;;7.10;99.90;;;;;;4952071;29;20123;-85
2023/12/20 08:09:05;;;;;;;14.88;2.75;;;7.10;99.90;;;;;;4962347;29;20091;-85
2023/12/20 08:11:31;;;;;;;17.00;3.13;;;7.10;99.90;;;;;;4946198;29;20068;-86
2023/12/20 08:13:58;;;;;;;24.75;3.03;;;7.10;99.90;;;;;;4964557;29;20047;-85
2023/12/20 08:16:25;;;;;;;29.80;3.70;;;7.70;99.90;;;;;;4947028;29;20401;-85
2023/12/20 08:18:52;;;;;;;18.23;3.25;;;7.60;99.90;;;;;;4966822;29;20063;-84
2023/12/20 08:21:20;;;;;;;19.58;3.00;;;7.20;99.90;;;;;;4962324;29;20039;-84
2023/12/20 08:23:47;;;;;;;22.05;3.33;;;7.70;99.90;;;;;;4944214;29;20043;-85
2023/12/20 08:26:14;;;;;;;23.42;3.25;;;7.20;99.90;;;;;;4969840;29;20043;-86
2023/12/20 08:28:40;;;;;;;22.98;3.60;;;7.20;99.90;;;;;;4948046;29;20043;-86
2023/12/20 08:31:14;;;;;;;22.17;3.40;;;7.20;99.90;;;;;;4970383;29;20050;-86
2023/12/20 08:33:40;;;;;;;20.92;3.25;;;7.90;99.90;;;;;;4950550;29;20040;-86
2023/12/20 08:36:07;;;;;;;23.63;3.75;;;7.30;99.90;;;;;;4939450;29;20042;-85
2023/12/20 08:38:34;;;;;;;16.48;2.35;;;7.30;99.90;;;;;;4968917;29;20043;-86
2023/12/20 08:41:01;;;;;;;16.45;3.15;;;7.40;99.90;;;;;;4946956;29;20028;-85
2023/12/20 08:43:28;;;;;;;20.10;3.00;;;7.40;99.90;;;;;;4949344;29;20114;-87
2023/12/20 08:45:55;;;;;;;21.25;2.80;;;7.40;99.90;;;;;;4940302;29;20040;-87
2023/12/20 08:48:21;;;;;;;11.90;2.45;;;8.10;99.90;;;;;;4968926;29;20035;-85
2023/12/20 08:50:49;;;;;;;21.90;3.35;;;7.40;99.90;;;;;;4962080;29;20046;-85
2023/12/20 08:53:17;;;;;;;12.65;2.70;;;7.60;99.90;;;;;;4951534;29;20103;-86
2023/12/20 08:55:44;;;;;;;20.60;2.58;;;7.70;99.90;;;;;;4950468;29;20087;-86
2023/12/20 08:58:10;;;;;;;5.28;1.00;;;7.50;99.90;;;;;;4959291;29;20100;-85
2023/12/20 09:00:38;;;;;;;5.45;1.13;;;7.00;99.90;;;;;;4950087;29;20083;-86
2023/12/20 09:03:05;;;;;;;6.13;0.65;;;6.60;99.90;;;;;;4952802;29;20436;-86
2023/12/20 09:05:32;;;;;;;4.43;0.85;;;6.40;99.90;;;;;;4945885;29;20032;-86
2023/12/20 09:07:58;;;;;;;4.82;0.52;;;7.00;99.90;;;;;;4941279;29;20060;-86
2023/12/20 09:10:25;;;;;;;7.22;0.90;;;6.00;99.90;;;;;;4936685;29;20099;-85
2023/12/20 09:12:57;;;;;;;8.85;1.25;;;5.90;99.90;;;;;;4949618;29;20044;-85
2023/12/20 09:15:25;;;;;;;14.48;1.08;;;5.70;99.90;;;;;;4945132;29;20131;-85
2023/12/20 09:17:52;;;;;;;5.68;1.08;;;5.60;99.90;;;;;;4969860;29;20050;-85
2023/12/20 09:20:19;;;;;;;4.93;0.90;;;6.20;99.90;;;;;;4953541;29;20040;-85
2023/12/20 09:22:45;;;;;;;4.85;0.90;;;5.60;99.90;;;;;;4947277;29;20040;-84
2023/12/20 09:25:13;;;;;;;5.75;0.88;;;6.30;99.90;;;;;;4964373;29;20047;-85
2023/12/20 09:27:40;;;;;;;12.00;1.85;;;5.60;99.90;;;;;;4964233;29;20032;-85
2023/12/20 09:30:07;;;;;;;6.13;1.13;;;6.10;99.90;;;;;;4943100;29;20492;-85
2023/12/20 09:32:34;;;;;;;4.80;1.13;;;5.60;99.90;;;;;;4939633;29;20047;-85
2023/12/20 09:35:02;;;;;;;10.20;1.10;;;5.60;99.90;;;;;;4952156;29;20486;-85
2023/12/20 09:37:28;;;;;;;5.80;1.27;;;5.60;99.90;;;;;;4940902;29;20126;-84
2023/12/20 09:39:55;;;;;;;3.45;0.80;;;5.70;99.90;;;;;;4963654;29;20072;-85
2023/12/20 09:42:35;;;;;;;9.00;1.48;;;5.90;99.90;;;;;;4952502;29;20043;-85
2023/12/20 09:45:03;;;;;;;5.72;0.90;;;5.70;99.90;;;;;;4952529;29;20032;-85
2023/12/20 09:47:29;;;;;;;4.78;1.15;;;5.70;99.90;;;;;;4949830;29;20043;-85
2023/12/20 09:49:56;;;;;;;10.32;1.25;;;5.70;99.90;;;;;;4952081;29;20043;-85
2023/12/20 09:52:24;;;;;;;7.22;1.02;;;5.70;99.90;;;;;;4950192;29;20048;-85
2023/12/20 09:54:53;;;;;;;7.78;0.80;;;5.80;99.90;;;;;;4943807;29;20052;-85
2023/12/20 09:57:20;;;;;;;10.48;1.02;;;5.70;99.90;;;;;;4945237;29;20048;-84
2023/12/20 09:59:46;;;;;;;4.95;1.15;;;5.70;99.90;;;;;;4940211;29;20134;-84
2023/12/20 10:02:14;;;;;;;9.50;1.10;;;5.70;99.90;;;;;;4938708;29;20036;-84
2023/12/20 10:04:47;;;;;;;10.50;1.25;;;5.70;99.90;;;;;;4941237;29;20079;-86
2023/12/20 10:07:15;;;;;;;8.13;1.40;;;5.70;99.90;;;;;;4936623;29;20569;-86
2023/12/20 10:09:42;;;;;;;7.93;1.30;;;5.80;99.90;;;;;;4965735;29;20501;-86
2023/12/20 10:12:09;;;;;;;4.85;1.00;;;5.80;99.90;;;;;;4955705;29;20036;-86
2023/12/20 10:14:35;;;;;;;8.07;0.95;;;5.90;99.90;;;;;;4951051;29;20114;-86
2023/12/20 10:17:06;;;;;;;11.75;1.45;;;5.90;99.90;;;;;;4947922;29;20043;-86
2023/12/20 10:19:33;;;;;;;9.40;1.30;;;6.60;99.90;;;;;;4949749;29;20036;-86
2023/12/20 10:22:00;;;;;;;6.88;1.17;;;5.90;99.90;;;;;;4951635;29;20047;-86
2023/12/20 10:24:29;;;;;;;5.35;1.25;;;6.00;99.90;;;;;;4957699;29;20115;-86
2023/12/20 10:27:07;;;;;;;7.00;1.00;;;5.90;99.90;;;;;;4947778;29;20409;-86
2023/12/20 10:29:37;;;;;;;5.93;1.05;;;5.90;99.90;;;;;;4953150;29;20065;-85
2023/12/20 10:32:22;;;;;;;7.60;1.20;;;6.20;99.90;;;;;;4942276;29;20071;-85
2023/12/20 10:34:49;;;;;;;6.68;1.20;;;5.90;99.90;;;;;;4946525;29;20043;-86
2023/12/20 10:37:17;;;;;;;6.00;1.20;;;5.90;99.90;;;;;;4949623;29;20131;-86
2023/12/20 10:39:44;;;;;;;9.43;1.52;;;6.30;99.90;;;;;;4949619;29;20044;-85
2023/12/20 10:42:13;;;;;;;8.90;1.40;;;6.00;99.90;;;;;;4953496;29;20045;-87
2023/12/20 10:44:40;;;;;;;10.07;1.33;;;6.00;99.90;;;;;;4948724;29;20449;-86
2023/12/20 10:47:07;;;;;;;14.77;1.60;;;6.40;99.90;;;;;;4952420;29;20042;-87
2023/12/20 10:49:36;;;;;;;11.60;2.00;;;6.30;99.90;;;;;;4960235;29;20062;-86
2023/12/20 10:52:05;;;;;;;11.38;1.50;;;6.10;99.90;;;;;;4936130;29;20043;-86
2023/12/20 10:54:32;;;;;;;8.40;1.80;;;6.20;99.90;;;;;;4941782;29;20152;-86
2023/12/20 10:56:59;;;;;;;7.93;1.40;;;6.20;99.90;;;;;;4950528;29;20047;-86
2023/12/20 10:59:29;;;;;;;8.68;1.45;;;6.30;99.90;;;;;;4941462;29;20417;-86
2023/12/20 11:01:57;;;;;;;12.85;1.63;;;7.00;99.90;;;;;;4947684;29;20170;-87
2023/12/20 11:04:30;;;;;;;7.82;1.27;;;6.60;99.90;;;;;;4943906;29;20054;-85
2023/12/20 11:07:24;;;;;;;10.50;1.30;;;6.40;99.90;;;;;;4968194;29;20055;-85
2023/12/20 11:10:23;;;;;;;8.88;1.30;;;6.40;99.90;;;;;;4952583;29;20075;-86
2023/12/20 11:13:05;;;;;;;5.57;1.30;;;6.40;99.90;;;;;;4945248;29;20076;-86
2023/12/20 11:15:31;;;;;;;11.88;1.40;;;6.40;99.90;;;;;;4947142;29;20123;-85
2023/12/20 11:17:59;;;;;;;9.05;1.67;;;6.50;99.90;;;;;;4941285;29;20100;-85
2023/12/20 11:20:36;;;;;;;6.78;1.17;;;6.50;99.90;;;;;;4956648;29;20040;-86
2023/12/20 11:23:03;;;;;;;8.93;1.33;;;6.80;99.90;;;;;;4943774;29;20047;-86
2023/12/20 11:25:54;;;;;;;13.05;1.63;;;6.50;99.90;;;;;;4946743;29;20040;-86
2023/12/20 11:28:22;;;;;;;16.38;2.30;;;6.60;99.90;;;;;;4959803;29;20036;-86
2023/12/20 11:30:54;;;;;;;11.23;1.83;;;6.60;99.90;;;;;;4944155;29;20054;-86
2023/12/20 11:33:31;;;;;;;11.02;1.50;;;6.90;99.90;;;;;;4947009;29;20040;-86
2023/12/20 11:35:59;;;;;;;11.68;1.75;;;6.50;99.90;;;;;;4944808;29;20044;-86
2023/12/20 11:38:26;;;;;;;12.90;2.42;;;6.90;99.90;;;;;;4946211;29;20458;-86
2023/12/20 11:40:56;;;;;;;10.95;1.90;;;6.40;99.90;;;;;;4956728;29;20048;-86
2023/12/20 11:43:35;;;;;;;12.35;1.63;;;6.40;99.90;;;;;;4945195;29;20490;-86
2023/12/20 11:46:06;;;;;;;10.02;1.77;;;6.40;99.90;;;;;;4942330;29;20036;-87
2023/12/20 11:48:34;;;;;;;11.55;1.88;;;6.30;99.90;;;;;;4950426;29;20042;-86
2023/12/20 11:51:02;;;;;;;8.70;1.63;;;6.30;99.90;;;;;;4950117;29;20082;-86
2023/12/20 11:53:31;;;;;;;14.85;1.95;;;6.30;99.90;;;;;;4950074;29;20043;-86
2023/12/20 11:55:58;;;;;;;10.82;2.13;;;6.60;99.90;;;;;;4946697;29;20044;-86
2023/12/20 11:58:25;;;;;;;9.48;1.58;;;7.00;99.90;;;;;;4943119;29;20382;-86
2023/12/20 12:00:52;;;;;;;9.93;1.83;;;6.20;99.90;;;;;;4941981;29;20040;-86
2023/12/20 12:03:19;;;;;;;13.35;2.25;;;6.80;99.90;;;;;;4939534;29;20043;-86
2023/12/20 12:05:48;;;;;;;12.20;2.63;;;6.40;99.90;;;;;;4948671;29;20048;-86
2023/12/20 12:08:15;;;;;;;15.40;2.00;;;7.50;99.90;;;;;;4944521;29;20485;-86
2023/12/20 12:10:45;;;;;;;7.53;1.70;;;6.60;99.90;;;;;;4945004;29;20099;-86
2023/12/20 12:13:14;;;;;;;13.88;2.33;;;6.60;99.90;;;;;;4945089;29;20063;-86
2023/12/20 12:15:42;;;;;;;15.88;1.90;;;6.70;99.90;;;;;;4960584;29;20500;-86
2023/12/20 12:18:10;;;;;;;12.07;2.10;;;6.80;99.90;;;;;;4940319;29;20222;-86
2023/12/20 12:20:36;;;;;;;10.80;1.70;;;6.80;99.90;;;;;;4950342;29;20043;-86
2023/12/20 12:23:06;;;;;;;11.52;2.15;;;7.60;99.90;;;;;;4950470;29;20508;-86
2023/12/20 12:25:36;;;;;;;6.88;1.63;;;6.80;99.90;;;;;;4953643;29;20046;-87
2023/12/20 12:28:03;;;;;;;8.93;1.42;;;6.90;99.90;;;;;;4952926;29;20099;-86
2023/12/20 12:30:29;;;;;;;10.48;1.95;;;6.70;99.90;;;;;;4945669;29;20043;-87
2023/12/20 12:32:57;;;;;;;15.65;2.03;;;6.70;99.90;;;;;;4952571;29;20047;-87
2023/12/20 12:35:24;;;;;;;12.27;1.80;;;6.70;99.90;;;;;;4946739;29;20134;-86
2023/12/20 12:37:51;;;;;;;15.23;2.83;;;6.70;99.90;;;;;;4955078;29;20132;-86
2023/12/20 12:40:18;;;;;;;10.48;1.45;;;7.10;99.90;;;;;;4955381;29;20510;-86
2023/12/20 12:42:45;;;;;;;15.43;2.35;;;6.80;99.90;;;;;;4951620;29;20047;-87
2023/12/20 12:45:12;;;;;;;12.68;1.80;;;7.60;99.90;;;;;;4953817;29;20032;-86
2023/12/20 12:47:39;;;;;;;13.13;1.70;;;7.50;99.90;;;;;;4943689;29;20099;-87
2023/12/20 12:50:06;;;;;;;9.90;1.45;;;6.80;99.90;;;;;;4946903;29;20036;-87